KCKV/CKV METAR and TAF weather

Enter ICAO airport designator
Station Type Date Time Source
KCKV METAR 2018/07/21 03:52 UTC NOAA

KCKV 210352Z AUTO 21007KT 10SM CLR 28/24 A2980 RMK AO2 SLP085 T02780239


Station Type Date Time Source
KCKV Decoded METAR 2018/07/21 03:52 UTC NOAA

CLARKSVILLE OUTLAW FIELD, TN, United States (KCKV) 36-37N 87-25W 165M
Jul 20, 2018 - 11:52 PM EDT / 2018.07.21 0352 UTC
Wind: from the SSW (210 degrees) at 8 MPH (7 KT):0
Visibility: 10 mile(s):0
Sky conditions: clear
Temperature: 82.0 F (27.8 C)
Dew Point: 75.0 F (23.9 C)
Relative Humidity: 79%
Pressure (altimeter): 29.8 in. Hg (1009 hPa)
ob: KCKV 210352Z AUTO 21007KT 10SM CLR 28/24 A2980 RMK AO2 SLP085 T02780239
cycle: 4

Station Type Date Time Source
KCKV TAF 2018/07/21 01:06 UTC NOAA

TAF
AMD KCKV 210104Z 2101/2124 22009KT P6SM VCTS SCT040CB SCT100 BKN250
TEMPO 2101/2103 VRB15G35KT 2SM TSRA OVC025CB
FM210400 22007KT P6SM SCT100
FM211500 29010KT P6SM SCT250
FM211800 25009KT P6SM VCTS SCT040CB BKN100 BKN250


Example: see airport list